Time;durP1;ratioP1;P1;durP2;ratioP2;P2;SDS_P1;SDS_P2;PMS_P1;PMS_P2;Temp;Humidity;BMP_temperature;BMP_pressure;BME280_temperature;BME280_humidity;BME280_pressure;Samples;Min_cycle;Max_cycle;Signal;HPM_P1;HPM_P2
2023/06/23 00:00:53;;;;;;;4.30;2.10;;;;;;;17.94;73.97;96176.78;2115410;28;20044;-58
2023/06/23 00:01:54;;;;;;;5.85;2.00;;;;;;;17.96;73.08;96181.91;2115582;28;20036;-58
2023/06/23 00:02:56;;;;;;;9.02;2.00;;;;;;;17.98;73.17;96172.97;2115001;28;20043;-58
2023/06/23 00:03:59;;;;;;;6.53;2.13;;;;;;;17.96;72.65;96168.75;2115590;28;20474;-58
2023/06/23 00:05:00;;;;;;;7.53;2.45;;;;;;;17.98;73.15;96177.38;2114711;28;20051;-58
2023/06/23 00:06:03;;;;;;;7.13;2.33;;;;;;;17.96;73.03;96180.13;2115564;28;20043;-58
2023/06/23 00:07:04;;;;;;;3.67;1.88;;;;;;;17.96;73.04;96180.13;2114755;28;20054;-58
2023/06/23 00:08:06;;;;;;;4.47;2.10;;;;;;;17.95;73.41;96188.13;2106415;28;20044;-58
2023/06/23 00:09:13;;;;;;;4.05;1.73;;;;;;;17.93;73.30;96195.28;2097688;28;20059;-58
2023/06/23 00:10:14;;;;;;;3.35;1.85;;;;;;;17.90;73.16;96195.50;2106731;28;20052;-58
2023/06/23 00:11:15;;;;;;;6.32;2.45;;;;;;;17.91;74.03;96194.53;2106772;28;20050;-58
2023/06/23 00:12:16;;;;;;;3.63;2.00;;;;;;;17.90;73.63;96195.50;2106078;28;20088;-57
2023/06/23 00:13:18;;;;;;;5.32;2.10;;;;;;;17.81;73.27;96183.88;2115490;28;20066;-57
2023/06/23 00:14:19;;;;;;;3.50;1.60;;;;;;;17.88;73.34;96187.72;2114915;28;20098;-58
2023/06/23 00:15:22;;;;;;;3.92;2.08;;;;;;;17.85;74.01;96188.81;2115331;28;20449;-58
2023/06/23 00:16:23;;;;;;;6.20;2.15;;;;;;;17.84;74.07;96192.38;2105896;28;20059;-58
2023/06/23 00:17:24;;;;;;;6.03;2.55;;;;;;;17.83;74.29;96195.94;2106567;28;20478;-59
2023/06/23 00:18:26;;;;;;;6.38;2.15;;;;;;;17.82;73.89;96185.53;2106083;28;20047;-58
2023/06/23 00:19:27;;;;;;;7.72;2.10;;;;;;;17.80;74.55;96185.69;2106501;28;20098;-58
2023/06/23 00:20:28;;;;;;;4.53;2.05;;;;;;;17.79;74.66;96188.41;2115287;28;20046;-58
2023/06/23 00:21:29;;;;;;;6.65;2.25;;;;;;;17.70;74.27;96174.13;2106695;28;20070;-58
2023/06/23 00:22:31;;;;;;;4.35;2.33;;;;;;;17.75;74.80;96184.28;2098005;28;20052;-57
2023/06/23 00:23:32;;;;;;;6.50;2.20;;;;;;;17.74;74.42;96195.75;2106595;28;20044;-57
2023/06/23 00:24:33;;;;;;;5.55;2.28;;;;;;;17.72;74.77;96195.00;2115254;28;20403;-57
2023/06/23 00:25:35;;;;;;;3.65;2.20;;;;;;;17.72;74.77;96184.50;2115284;28;20054;-58
2023/06/23 00:26:36;;;;;;;4.60;2.10;;;;;;;17.71;74.67;96183.66;2105678;28;20067;-58
2023/06/23 00:27:38;;;;;;;4.80;2.22;;;;;;;17.66;75.16;96177.06;2097720;28;20044;-58
2023/06/23 00:28:39;;;;;;;7.28;2.22;;;;;;;17.68;74.89;96178.66;2097027;28;20164;-58
2023/06/23 00:29:42;;;;;;;6.15;2.50;;;;;;;17.66;75.03;96182.34;2097425;28;20060;-58
2023/06/23 00:30:43;;;;;;;3.95;2.10;;;;;;;17.59;75.10;96168.81;2097747;28;20055;-58
2023/06/23 00:31:44;;;;;;;7.10;2.00;;;;;;;17.65;74.20;96186.75;2097997;28;20546;-58
2023/06/23 00:32:46;;;;;;;8.95;2.38;;;;;;;17.67;74.24;96178.75;2097994;28;20055;-57
2023/06/23 00:33:47;;;;;;;4.20;2.20;;;;;;;17.64;74.50;96172.78;2106158;28;20047;-58
2023/06/23 00:34:49;;;;;;;3.63;1.88;;;;;;;17.66;74.65;96174.44;2106066;28;20048;-58
2023/06/23 00:35:50;;;;;;;4.63;2.03;;;;;;;17.62;74.63;96169.44;2098217;28;20392;-58
2023/06/23 00:36:51;;;;;;;5.25;2.15;;;;;;;17.62;75.21;96166.81;2105559;28;20048;-58
2023/06/23 00:37:53;;;;;;;4.03;2.20;;;;;;;17.61;75.36;96166.91;2106410;28;20399;-59
2023/06/23 00:38:54;;;;;;;2.83;1.70;;;;;;;17.57;75.35;96160.22;2105833;28;20052;-59
2023/06/23 00:39:56;;;;;;;5.28;2.13;;;;;;;17.55;75.09;96160.31;2105261;28;20047;-59
2023/06/23 00:40:57;;;;;;;5.13;2.00;;;;;;;17.53;75.27;96169.25;2097080;28;20098;-58
2023/06/23 00:42:01;;;;;;;4.07;1.85;;;;;;;17.52;75.98;96170.22;2098012;28;20380;-59
2023/06/23 00:43:02;;;;;;;5.10;1.92;;;;;;;17.52;75.53;96157.91;2098294;28;20051;-58
2023/06/23 00:44:07;;;;;;;4.60;2.13;;;;;;;17.51;75.60;96168.50;2106214;28;20043;-59
2023/06/23 00:45:09;;;;;;;4.22;2.22;;;;;;;17.48;75.51;96161.72;2105498;28;20052;-59
2023/06/23 00:46:16;;;;;;;6.95;2.10;;;;;;;17.44;75.41;96148.91;2106357;28;20044;-58
2023/06/23 00:47:17;;;;;;;3.83;2.15;;;;;;;17.55;74.73;96168.19;2105295;28;20059;-57
2023/06/23 00:48:18;;;;;;;4.07;2.17;;;;;;;17.57;74.19;96165.47;2097787;28;20051;-57
2023/06/23 00:49:20;;;;;;;3.92;2.22;;;;;;;17.58;75.00;96164.50;2097803;28;20056;-58
2023/06/23 00:50:21;;;;;;;6.10;2.05;;;;;;;17.59;74.88;96166.19;2097217;28;20071;-59
2023/06/23 00:51:23;;;;;;;5.53;2.33;;;;;;;17.59;75.19;96166.19;2106050;28;20043;-57
2023/06/23 00:52:24;;;;;;;4.10;2.08;;;;;;;17.58;74.70;96161.88;2097750;28;20048;-58
2023/06/23 00:53:26;;;;;;;4.80;2.28;;;;;;;17.50;74.85;96153.72;2097919;28;20049;-58
2023/06/23 00:54:28;;;;;;;7.18;2.35;;;;;;;17.54;74.70;96155.19;2097917;28;20044;-58
2023/06/23 00:55:29;;;;;;;4.63;2.08;;;;;;;17.57;74.16;96157.59;2089498;28;20064;-57
2023/06/23 00:56:30;;;;;;;10.70;2.25;;;;;;;17.56;74.64;96163.75;2097607;28;20056;-57
2023/06/23 00:57:32;;;;;;;3.25;1.90;;;;;;;17.48;74.34;96152.97;2089624;28;20053;-58
2023/06/23 00:58:35;;;;;;;4.03;2.08;;;;;;;17.55;74.73;96165.56;2081619;28;20096;-58
2023/06/23 00:59:36;;;;;;;6.03;2.10;;;;;;;17.56;73.81;96166.41;2105820;28;20052;-57
2023/06/23 01:00:37;;;;;;;3.67;2.30;;;;;;;17.58;74.55;96169.75;2115088;28;20035;-57
2023/06/23 01:01:39;;;;;;;3.80;2.00;;;;;;;17.55;73.70;96167.34;2115042;28;20394;-58
2023/06/23 01:02:40;;;;;;;6.30;2.03;;;;;;;17.53;74.14;96164.00;2115381;28;20356;-57
2023/06/23 01:03:41;;;;;;;3.63;1.77;;;;;;;17.52;74.59;96157.91;2115125;28;20047;-58
2023/06/23 01:04:48;;;;;;;8.55;2.25;;;;;;;17.44;74.09;96162.03;2105670;28;20060;-57
2023/06/23 01:05:49;;;;;;;5.63;2.20;;;;;;;17.49;74.33;96170.44;2107051;28;20062;-57
2023/06/23 01:06:57;;;;;;;5.15;1.95;;;;;;;17.47;74.39;96172.31;2097749;28;20055;-59
2023/06/23 01:08:13;;;;;;;7.28;1.88;;;;;;;17.45;74.67;96168.97;2090280;28;20433;-59
2023/06/23 01:09:22;;;;;;;7.65;2.05;;;;;;;17.39;74.42;96165.00;2093875;28;20460;-58
2023/06/23 01:10:32;;;;;;;4.32;2.10;;;;;;;17.37;74.87;96156.38;2093517;28;20048;-59
2023/06/23 01:11:43;;;;;;;4.53;1.80;;;;;;;17.29;74.98;96149.06;2091268;28;20049;-59
2023/06/23 01:12:53;;;;;;;4.07;1.92;;;;;;;17.38;74.87;96166.78;2099764;28;20132;-59
2023/06/23 01:13:55;;;;;;;4.47;2.10;;;;;;;17.35;74.58;96169.63;2105458;28;20118;-59
2023/06/23 01:15:04;;;;;;;4.13;1.73;;;;;;;17.33;74.86;96176.78;2106048;28;20039;-59
2023/06/23 01:16:15;;;;;;;4.85;2.25;;;;;;;17.24;75.02;96153.81;2105290;28;20058;-58
2023/06/23 01:17:23;;;;;;;4.93;1.90;;;;;;;17.28;75.05;96164.94;2098168;28;20431;-58
2023/06/23 01:18:56;;;;;;;5.03;2.47;;;;;;;17.17;74.28;96149.94;2090447;28;20056;-58
2023/06/23 01:20:00;;;;;;;4.22;2.20;;;;;;;17.26;74.32;96170.28;2089905;28;20045;-59
2023/06/23 01:21:03;;;;;;;5.80;2.05;;;;;;;17.23;74.40;96165.25;2092270;28;20512;-59
2023/06/23 01:22:25;;;;;;;3.45;2.20;;;;;;;17.27;74.05;96171.09;2089069;28;20057;-58
2023/06/23 01:23:45;;;;;;;4.43;2.03;;;;;;;17.27;75.02;96165.84;2095386;28;20106;-58
2023/06/23 01:25:24;;;;;;;5.53;2.05;;;;;;;17.24;74.35;96172.19;2102198;28;20039;-59
2023/06/23 01:26:44;;;;;;;3.45;1.85;;;;;;;17.23;75.19;96173.13;2069499;28;20053;-59
2023/06/23 01:27:58;;;;;;;4.07;2.17;;;;;;;17.20;75.53;96165.47;2072428;28;20478;-58
2023/06/23 01:29:00;;;;;;;4.53;2.05;;;;;;;17.12;74.68;96154.69;2072648;28;20038;-59
2023/06/23 01:30:02;;;;;;;3.35;1.85;;;;;;;17.20;74.93;96170.72;2063732;28;20355;-58
2023/06/23 01:31:03;;;;;;;3.92;1.90;;;;;;;17.19;74.73;96162.00;2056639;28;20054;-58
2023/06/23 01:32:13;;;;;;;2.88;1.80;;;;;;;17.22;74.35;96168.00;2082847;28;20075;-58
2023/06/23 01:33:17;;;;;;;4.88;1.80;;;;;;;17.20;74.75;96157.59;2105835;28;20491;-59
2023/06/23 01:34:23;;;;;;;5.40;1.85;;;;;;;17.22;74.94;96166.19;2089088;28;20056;-58
2023/06/23 01:35:27;;;;;;;4.95;1.88;;;;;;;17.20;74.79;96158.44;2090197;28;20048;-58
2023/06/23 01:36:55;;;;;;;3.72;2.13;;;;;;;17.25;74.37;96163.34;2089824;28;20369;-58
2023/06/23 01:38:10;;;;;;;3.33;2.08;;;;;;;17.24;74.08;96166.94;2093185;28;20044;-58
2023/06/23 01:39:12;;;;;;;4.75;2.25;;;;;;;17.22;74.62;96168.81;2091004;28;20048;-59
2023/06/23 01:40:14;;;;;;;3.92;1.70;;;;;;;17.15;74.54;96157.09;2089156;28;20389;-58
2023/06/23 01:41:24;;;;;;;4.13;2.15;;;;;;;17.11;74.70;96148.59;2088348;28;20052;-58
2023/06/23 01:42:30;;;;;;;2.88;1.77;;;;;;;17.18;74.32;96169.97;2098676;28;20052;-58
2023/06/23 01:43:31;;;;;;;3.55;2.00;;;;;;;17.14;74.49;96168.53;2097600;28;20041;-59
2023/06/23 01:44:32;;;;;;;4.15;2.10;;;;;;;17.08;74.77;96166.31;2089084;28;20061;-58
2023/06/23 01:45:34;;;;;;;5.43;1.55;;;;;;;16.98;75.02;96151.25;2088459;28;20041;-59
2023/06/23 01:46:35;;;;;;;4.03;1.58;;;;;;;17.04;75.32;96175.38;2089042;28;20049;-58
2023/06/23 01:47:38;;;;;;;3.53;2.05;;;;;;;17.00;75.09;96185.25;2089501;28;20053;-59
2023/06/23 01:48:42;;;;;;;3.70;1.60;;;;;;;16.92;75.38;96154.31;2097084;28;20060;-58
2023/06/23 01:49:43;;;;;;;5.68;2.00;;;;;;;16.89;75.43;96151.91;2097676;28;20051;-58
2023/06/23 01:50:44;;;;;;;4.47;1.70;;;;;;;16.85;74.99;96160.91;2081196;28;20048;-58
2023/06/23 01:51:47;;;;;;;4.63;1.98;;;;;;;16.96;75.73;96184.59;2080775;28;20045;-59
2023/06/23 01:52:49;;;;;;;4.65;1.70;;;;;;;16.87;75.13;96158.19;2090307;28;20037;-58
2023/06/23 01:53:50;;;;;;;4.05;1.67;;;;;;;16.93;75.39;96174.34;2080482;28;20505;-58
2023/06/23 01:54:52;;;;;;;4.07;1.50;;;;;;;16.93;75.30;96169.09;2072716;28;20065;-58
2023/06/23 01:55:53;;;;;;;5.75;2.00;;;;;;;16.81;75.37;96156.81;2081086;28;20049;-59
2023/06/23 01:56:54;;;;;;;4.68;2.00;;;;;;;16.91;74.72;96165.72;2080466;28;20045;-59
2023/06/23 01:57:56;;;;;;;3.33;1.92;;;;;;;16.94;75.21;96162.88;2072624;28;20042;-58
2023/06/23 01:58:57;;;;;;;4.25;2.10;;;;;;;16.93;75.47;96166.47;2088761;28;20044;-58
2023/06/23 01:59:58;;;;;;;3.45;1.95;;;;;;;16.94;75.28;96172.53;2088653;28;20049;-58
2023/06/23 02:00:59;;;;;;;2.88;1.90;;;;;;;16.87;74.92;96151.16;2064433;28;20042;-59
2023/06/23 02:02:02;;;;;;;3.22;1.83;;;;;;;16.82;75.41;96155.06;2073714;28;20045;-58
2023/06/23 02:03:03;;;;;;;4.90;1.83;;;;;;;16.94;75.33;96173.38;2090970;28;20061;-58
2023/06/23 02:04:04;;;;;;;3.25;1.75;;;;;;;16.93;75.89;96176.13;2099011;28;20048;-58
2023/06/23 02:05:06;;;;;;;3.17;1.50;;;;;;;16.94;75.54;96177.78;2098943;28;20399;-58
2023/06/23 02:06:07;;;;;;;3.22;1.83;;;;;;;16.93;76.28;96184.00;2099082;28;20032;-59
2023/06/23 02:07:09;;;;;;;5.50;2.30;;;;;;;16.90;75.53;96194.69;2107204;28;20075;-58
2023/06/23 02:08:11;;;;;;;4.47;1.90;;;;;;;16.89;75.57;96193.88;2090733;28;20037;-58
2023/06/23 02:09:15;;;;;;;4.57;1.95;;;;;;;16.88;76.03;96197.41;2074160;28;20068;-58
2023/06/23 02:10:17;;;;;;;4.35;2.20;;;;;;;16.78;76.39;96193.75;2100007;28;20055;-59
2023/06/23 02:11:19;;;;;;;4.45;1.75;;;;;;;16.81;76.09;96198.78;2098173;28;20044;-58
2023/06/23 02:12:20;;;;;;;2.95;1.63;;;;;;;16.83;76.24;96207.38;2090603;28;20061;-58
2023/06/23 02:13:24;;;;;;;4.60;1.92;;;;;;;16.77;76.04;96189.47;2090850;28;20040;-58
2023/06/23 02:14:26;;;;;;;3.67;2.05;;;;;;;16.83;76.87;96193.44;2091007;28;20048;-59
2023/06/23 02:15:27;;;;;;;3.22;1.80;;;;;;;16.81;75.83;96190.91;2081885;28;20068;-58
2023/06/23 02:16:28;;;;;;;5.63;2.00;;;;;;;16.83;76.26;96199.50;2090608;28;20052;-58
2023/06/23 02:17:29;;;;;;;3.17;1.50;;;;;;;16.83;76.07;96186.41;2107149;28;20134;-58
2023/06/23 02:18:30;;;;;;;4.15;1.90;;;;;;;16.72;76.14;96175.78;2106646;28;20051;-57
2023/06/23 02:19:31;;;;;;;3.45;1.70;;;;;;;16.79;76.11;96190.19;2081821;28;20045;-58
2023/06/23 02:20:32;;;;;;;4.47;2.00;;;;;;;16.80;76.13;96194.50;2090131;28;20475;-58
2023/06/23 02:21:34;;;;;;;4.68;2.17;;;;;;;16.78;76.52;96192.91;2098555;28;20055;-58
2023/06/23 02:22:35;;;;;;;4.20;2.40;;;;;;;16.78;76.15;96193.75;2098435;28;20062;-58
2023/06/23 02:23:36;;;;;;;5.28;1.83;;;;;;;16.80;76.37;96204.13;2090396;28;20052;-59
2023/06/23 02:24:38;;;;;;;4.65;1.92;;;;;;;16.79;76.38;96205.94;2090833;28;20045;-58
2023/06/23 02:25:39;;;;;;;3.22;1.77;;;;;;;16.80;76.61;96201.53;2099091;28;20063;-59
2023/06/23 02:26:41;;;;;;;9.02;2.30;;;;;;;16.74;76.43;96197.50;2106454;28;20056;-58
2023/06/23 02:27:43;;;;;;;3.22;2.00;;;;;;;16.84;76.21;96211.69;2098433;28;20048;-58
2023/06/23 02:28:49;;;;;;;4.30;1.90;;;;;;;16.90;76.32;96199.94;2090685;28;20075;-58
2023/06/23 02:29:51;;;;;;;4.28;1.65;;;;;;;16.92;76.52;96211.16;2083654;28;20048;-57
2023/06/23 02:30:52;;;;;;;4.18;1.67;;;;;;;16.88;75.99;96207.06;2091180;28;20053;-59
2023/06/23 02:31:55;;;;;;;4.43;2.17;;;;;;;16.88;76.92;96207.91;2098363;28;20097;-58
2023/06/23 02:32:56;;;;;;;3.00;1.52;;;;;;;16.91;75.94;96209.47;2107483;28;20410;-58
2023/06/23 02:33:57;;;;;;;4.32;1.85;;;;;;;16.92;76.38;96219.00;2107164;28;20047;-58
2023/06/23 02:34:58;;;;;;;3.55;2.17;;;;;;;16.90;76.39;96216.50;2090235;28;20508;-58
2023/06/23 02:35:59;;;;;;;2.90;1.67;;;;;;;16.89;76.86;96220.09;2097988;28;20057;-58
2023/06/23 02:37:05;;;;;;;5.95;2.83;;;;;;;16.89;76.30;96212.22;2098569;28;20049;-58
2023/06/23 02:38:08;;;;;;;3.95;2.08;;;;;;;16.82;76.31;96203.09;2091110;28;20049;-58
2023/06/23 02:39:11;;;;;;;3.80;2.35;;;;;;;16.81;76.48;96201.41;2107154;28;20048;-59
2023/06/23 02:40:16;;;;;;;2.70;1.80;;;;;;;16.94;76.11;96217.13;2106297;28;20044;-58
2023/06/23 02:41:17;;;;;;;3.47;1.90;;;;;;;16.91;76.76;96204.22;2099008;28;20052;-58
2023/06/23 02:42:19;;;;;;;4.10;2.20;;;;;;;16.87;76.17;96203.63;2090425;28;20052;-58
2023/06/23 02:43:27;;;;;;;3.90;2.15;;;;;;;16.89;76.64;96214.00;2066770;28;20042;-58
2023/06/23 02:44:53;;;;;;;4.30;1.90;;;;;;;16.88;77.46;96207.06;2092941;28;20075;-58
2023/06/23 02:45:57;;;;;;;3.30;2.10;;;;;;;16.78;76.88;96196.38;2095286;28;20479;-59
2023/06/23 02:46:58;;;;;;;12.68;2.22;;;;;;;16.80;77.03;96210.22;2107069;28;20063;-58
2023/06/23 02:47:59;;;;;;;8.45;2.40;;;;;;;16.78;76.50;96206.84;2098557;28;20423;-58
2023/06/23 02:49:05;;;;;;;4.03;1.92;;;;;;;16.76;77.12;96201.69;2081891;28;20088;-58
2023/06/23 02:50:07;;;;;;;3.55;1.90;;;;;;;16.74;77.40;96195.72;2091303;28;20056;-58
2023/06/23 02:51:11;;;;;;;6.00;2.22;;;;;;;16.70;77.50;96193.41;2090690;28;20053;-58
2023/06/23 02:52:13;;;;;;;4.88;2.22;;;;;;;16.64;77.95;96188.59;2091362;28;20381;-58
2023/06/23 02:53:22;;;;;;;4.07;1.90;;;;;;;16.62;78.17;96190.47;2098499;28;20060;-59
2023/06/23 02:54:24;;;;;;;4.70;2.10;;;;;;;16.61;78.84;96196.66;2090454;28;20045;-58
2023/06/23 02:55:26;;;;;;;2.90;1.95;;;;;;;16.56;78.39;96193.50;2083358;28;20061;-58
2023/06/23 02:56:27;;;;;;;3.95;2.15;;;;;;;16.53;78.25;96186.69;2082352;28;20060;-58
2023/06/23 02:57:29;;;;;;;3.63;2.15;;;;;;;16.44;78.56;96171.56;2090466;28;20057;-58
2023/06/23 02:58:30;;;;;;;3.45;1.90;;;;;;;16.45;78.29;96179.34;2090742;28;20053;-58
2023/06/23 02:59:31;;;;;;;3.35;2.08;;;;;;;16.44;78.82;96176.81;2089828;28;20053;-58
2023/06/23 03:00:32;;;;;;;5.07;2.28;;;;;;;16.53;79.04;96191.94;2098417;28;20147;-58
2023/06/23 03:01:37;;;;;;;2.80;1.80;;;;;;;16.50;79.06;96192.16;2090491;28;20041;-58
2023/06/23 03:02:40;;;;;;;4.38;2.00;;;;;;;16.52;79.07;96193.72;2083418;28;20065;-58
2023/06/23 03:03:41;;;;;;;3.55;1.80;;;;;;;16.47;79.71;96194.97;2090853;28;20060;-58
2023/06/23 03:04:44;;;;;;;4.50;2.00;;;;;;;16.50;79.26;96205.25;2098486;28;20471;-57
2023/06/23 03:05:45;;;;;;;3.72;1.77;;;;;;;16.52;78.88;96196.34;2090137;28;20476;-58
2023/06/23 03:06:46;;;;;;;2.70;1.60;;;;;;;16.56;78.68;96196.13;2098597;28;20064;-58
2023/06/23 03:07:50;;;;;;;5.40;1.92;;;;;;;16.57;79.07;96201.25;2116040;28;20418;-58
2023/06/23 03:08:51;;;;;;;3.78;1.95;;;;;;;16.53;78.37;96198.00;2106547;28;20052;-58
2023/06/23 03:09:52;;;;;;;3.28;1.90;;;;;;;16.60;78.74;96200.22;2106081;28;20052;-58
2023/06/23 03:10:54;;;;;;;4.35;2.00;;;;;;;16.62;78.84;96204.41;2098485;28;20056;-58
2023/06/23 03:11:56;;;;;;;3.28;1.90;;;;;;;16.65;78.29;96198.97;2099109;28;20059;-58
2023/06/23 03:12:57;;;;;;;4.00;1.80;;;;;;;16.65;78.40;96205.97;2115716;28;20431;-58
2023/06/23 03:13:58;;;;;;;4.25;1.98;;;;;;;16.60;78.13;96193.22;2115193;28;20054;-58
2023/06/23 03:15:00;;;;;;;7.80;2.20;;;;;;;16.62;78.73;96191.28;2106628;28;20048;-58
2023/06/23 03:16:02;;;;;;;4.25;1.80;;;;;;;16.67;78.59;96198.84;2098333;28;20055;-58
2023/06/23 03:17:12;;;;;;;3.08;1.80;;;;;;;16.77;78.51;96202.56;2090297;28;20049;-58
2023/06/23 03:18:16;;;;;;;3.47;1.80;;;;;;;16.79;78.16;96203.31;2083312;28;20061;-58
2023/06/23 03:19:30;;;;;;;4.32;1.80;;;;;;;16.65;78.26;96177.13;2082880;28;20053;-59
2023/06/23 03:20:35;;;;;;;4.10;1.80;;;;;;;16.72;78.28;96191.53;2092480;28;20040;-58
2023/06/23 03:21:37;;;;;;;3.80;1.98;;;;;;;16.82;78.65;96204.88;2091290;28;20040;-59
2023/06/23 03:22:49;;;;;;;3.50;1.67;;;;;;;16.83;78.63;96210.00;2090466;28;20068;-58
2023/06/23 03:23:51;;;;;;;3.05;1.70;;;;;;;16.78;78.06;96195.53;2093231;28;20516;-58
2023/06/23 03:24:56;;;;;;;2.60;1.80;;;;;;;16.83;78.49;96203.94;2089522;28;20045;-58
2023/06/23 03:25:59;;;;;;;3.42;1.85;;;;;;;16.81;78.74;96201.41;2091324;28;20067;-58
2023/06/23 03:27:01;;;;;;;3.60;1.92;;;;;;;16.83;79.87;96207.38;2090211;28;20500;-58
2023/06/23 03:28:08;;;;;;;3.03;1.92;;;;;;;16.70;79.83;96189.00;2098393;28;20064;-58
2023/06/23 03:29:09;;;;;;;2.08;1.40;;;;;;;16.77;80.01;96207.81;2091224;28;20060;-58
2023/06/23 03:30:20;;;;;;;3.47;1.73;;;;;;;16.73;80.41;96211.53;2081902;28;20058;-58
2023/06/23 03:31:21;;;;;;;2.95;1.95;;;;;;;16.68;80.51;96209.25;2084189;28;20432;-58
2023/06/23 03:32:25;;;;;;;3.38;1.98;;;;;;;16.65;81.32;96212.09;2081873;28;20061;-58
2023/06/23 03:33:36;;;;;;;3.22;1.73;;;;;;;16.53;81.20;96198.00;2090548;28;20075;-57
2023/06/23 03:34:43;;;;;;;3.97;1.90;;;;;;;16.59;82.42;96203.78;2091529;28;20223;-58
2023/06/23 03:35:44;;;;;;;3.65;1.77;;;;;;;16.57;82.33;96211.75;2092182;28;20040;-58
2023/06/23 03:36:45;;;;;;;4.82;1.90;;;;;;;16.53;81.98;96207.66;2090614;28;20450;-58
2023/06/23 03:37:51;;;;;;;4.07;1.60;;;;;;;16.52;82.35;96203.38;2089473;28;20053;-59
2023/06/23 03:39:01;;;;;;;3.30;1.98;;;;;;;16.43;82.55;96189.09;2097658;28;20404;-58
2023/06/23 03:40:09;;;;;;;4.20;1.60;;;;;;;16.47;82.93;96197.59;2099662;28;20099;-58
2023/06/23 03:41:10;;;;;;;2.83;1.73;;;;;;;16.42;82.71;96179.56;2107366;28;20052;-59
2023/06/23 03:42:11;;;;;;;3.58;1.75;;;;;;;16.52;82.49;96204.22;2106593;28;20047;-58
2023/06/23 03:43:22;;;;;;;2.75;1.65;;;;;;;16.52;82.79;96209.47;2106122;28;20051;-58
2023/06/23 03:44:29;;;;;;;3.20;1.50;;;;;;;16.51;83.13;96215.63;2115920;28;20042;-58
2023/06/23 03:45:30;;;;;;;4.32;2.40;;;;;;;16.51;83.19;96209.53;2106532;28;20044;-58
2023/06/23 03:46:52;;;;;;;3.03;1.67;;;;;;;16.51;83.37;96210.38;2098204;28;20056;-58
2023/06/23 03:47:58;;;;;;;3.00;1.60;;;;;;;16.51;82.77;96214.78;2109597;28;20043;-58
2023/06/23 03:48:59;;;;;;;2.75;1.60;;;;;;;16.53;83.60;96219.00;2106982;28;20036;-59
2023/06/23 03:50:05;;;;;;;4.78;1.60;;;;;;;16.43;82.92;96212.69;2090172;28;20041;-58
2023/06/23 03:51:07;;;;;;;3.20;1.52;;;;;;;16.52;83.09;96222.56;2082835;28;20076;-59
2023/06/23 03:52:08;;;;;;;2.92;1.63;;;;;;;16.40;83.39;96207.66;2082168;28;20041;-58
2023/06/23 03:53:09;;;;;;;4.82;1.63;;;;;;;16.47;83.25;96211.53;2081354;28;20057;-58
2023/06/23 03:54:10;;;;;;;1.92;1.27;;;;;;;16.54;83.46;96230.31;2089333;28;20064;-58
2023/06/23 03:55:12;;;;;;;1.40;1.02;;;;;;;16.56;82.74;96220.56;2106212;28;20067;-58
2023/06/23 03:56:13;;;;;;;2.92;1.20;;;;;;;16.58;83.05;96223.09;2097655;28;20059;-58
2023/06/23 03:57:18;;;;;;;1.88;1.40;;;;;;;16.50;83.29;96208.72;2090203;28;20044;-58
2023/06/23 03:58:19;;;;;;;3.00;1.20;;;;;;;16.53;83.10;96213.75;2107350;28;20035;-58
2023/06/23 03:59:21;;;;;;;2.92;1.13;;;;;;;16.58;83.13;96213.44;2106742;28;20040;-58
2023/06/23 04:00:22;;;;;;;2.00;1.20;;;;;;;16.50;83.52;96206.09;2089571;28;20053;-58
2023/06/23 04:01:23;;;;;;;7.35;1.50;;;;;;;16.51;84.39;96226.09;2089804;28;20053;-58
2023/06/23 04:02:24;;;;;;;2.47;1.10;;;;;;;16.44;85.21;96224.84;2089833;28;20557;-58
2023/06/23 04:03:25;;;;;;;2.13;1.20;;;;;;;16.32;86.00;96215.19;2089293;28;20056;-59
2023/06/23 04:04:27;;;;;;;2.17;0.82;;;;;;;16.29;86.16;96225.88;2089797;28;20136;-58
2023/06/23 04:05:31;;;;;;;1.85;0.98;;;;;;;16.14;87.39;96213.78;2089600;28;20044;-58
2023/06/23 04:06:32;;;;;;;4.18;1.40;;;;;;;16.21;88.03;96225.53;2098619;28;20049;-58
2023/06/23 04:07:33;;;;;;;1.88;1.20;;;;;;;16.18;87.97;96228.38;2106893;28;20062;-58
2023/06/23 04:08:34;;;;;;;1.98;1.10;;;;;;;16.16;88.13;96225.00;2089996;28;20424;-58
2023/06/23 04:09:36;;;;;;;1.63;1.20;;;;;;;16.14;88.43;96232.13;2097855;28;20052;-58
2023/06/23 04:10:37;;;;;;;2.30;1.23;;;;;;;16.12;88.61;96229.63;2105834;28;20056;-58
2023/06/23 04:11:39;;;;;;;1.67;1.08;;;;;;;16.13;88.62;96225.22;2090070;28;20060;-59
2023/06/23 04:12:40;;;;;;;2.15;1.15;;;;;;;16.07;89.10;96229.91;2097856;28;20055;-58
2023/06/23 04:13:41;;;;;;;4.20;1.00;;;;;;;15.98;89.31;96220.00;2106337;28;20044;-58
2023/06/23 04:14:44;;;;;;;3.20;1.20;;;;;;;16.01;89.62;96230.31;2098162;28;20048;-58
2023/06/23 04:15:45;;;;;;;2.47;1.00;;;;;;;15.92;89.67;96215.19;2098329;28;20388;-58
2023/06/23 04:16:46;;;;;;;1.23;0.85;;;;;;;15.98;90.18;96240.97;2089972;28;20052;-58
2023/06/23 04:17:47;;;;;;;1.52;1.00;;;;;;;15.94;90.89;96236.88;2089850;28;20436;-58
2023/06/23 04:18:49;;;;;;;2.58;1.15;;;;;;;15.90;91.65;96237.16;2090002;28;20048;-59
2023/06/23 04:19:53;;;;;;;1.75;0.80;;;;;;;15.84;91.69;96230.56;2106710;28;20051;-58
2023/06/23 04:20:55;;;;;;;2.50;1.00;;;;;;;15.82;92.19;96232.44;2106112;28;20506;-59
2023/06/23 04:21:56;;;;;;;2.22;1.30;;;;;;;15.80;91.90;96239.56;2114715;28;20489;-58
2023/06/23 04:22:58;;;;;;;1.75;0.90;;;;;;;15.78;91.83;96234.41;2097299;28;20056;-58
2023/06/23 04:24:00;;;;;;;1.50;0.90;;;;;;;15.76;92.46;96232.81;2089438;28;20060;-59
2023/06/23 04:25:01;;;;;;;2.20;1.00;;;;;;;15.75;92.94;96229.38;2096796;28;20048;-59
2023/06/23 04:26:03;;;;;;;1.05;0.80;;;;;;;15.77;93.00;96229.25;2089450;28;20500;-58
2023/06/23 04:27:05;;;;;;;1.80;1.13;;;;;;;15.77;93.57;96244.97;2098233;28;20045;-58
2023/06/23 04:28:06;;;;;;;1.05;0.75;;;;;;;15.77;92.81;96244.97;2097625;28;20079;-58
2023/06/23 04:29:07;;;;;;;1.25;0.60;;;;;;;15.78;93.64;96249.28;2098186;28;20495;-58
2023/06/23 04:30:09;;;;;;;1.60;1.15;;;;;;;15.77;94.04;96251.06;2096999;28;20059;-59
2023/06/23 04:31:10;;;;;;;1.23;0.80;;;;;;;15.75;94.28;96258.19;2098332;28;20036;-58
2023/06/23 04:32:11;;;;;;;1.95;0.80;;;;;;;15.64;95.02;96239.66;2097599;28;20059;-59
2023/06/23 04:33:12;;;;;;;2.50;0.80;;;;;;;15.62;95.22;96246.78;2098102;28;20483;-59
2023/06/23 04:34:13;;;;;;;1.80;0.82;;;;;;;15.65;95.09;96252.63;2088932;28;20570;-58
2023/06/23 04:35:14;;;;;;;1.38;0.70;;;;;;;15.52;95.30;96243.88;2109279;28;20051;-58
2023/06/23 04:36:16;;;;;;;1.00;0.60;;;;;;;15.48;96.17;96239.78;2114669;28;20059;-58
2023/06/23 04:37:27;;;;;;;0.55;0.52;;;;;;;15.59;96.65;96271.34;2105867;28;20056;-58
2023/06/23 04:38:28;;;;;;;1.77;0.70;;;;;;;15.53;96.55;96263.03;2099569;28;20081;-58
2023/06/23 04:39:34;;;;;;;1.83;0.70;;;;;;;15.35;97.04;96241.50;2088953;28;20059;-58
2023/06/23 04:40:41;;;;;;;1.42;0.75;;;;;;;15.54;96.74;96269.97;2098421;28;20064;-58
2023/06/23 04:41:42;;;;;;;2.28;0.70;;;;;;;15.53;97.28;96263.03;2106962;28;20344;-59
2023/06/23 04:43:09;;;;;;;1.08;0.70;;;;;;;15.51;96.64;96275.41;2114761;28;20056;-58
2023/06/23 04:44:10;;;;;;;0.90;0.73;;;;;;;15.48;97.68;96297.38;2105730;28;20052;-58
2023/06/23 04:45:14;;;;;;;1.23;0.70;;;;;;;15.41;97.06;96290.81;2105409;28;20052;-58
2023/06/23 04:46:25;;;;;;;1.27;0.80;;;;;;;15.43;97.50;96295.03;2115411;28;20044;-58
2023/06/23 04:47:29;;;;;;;1.80;1.23;;;;;;;15.26;97.44;96278.69;2106411;28;20051;-58
2023/06/23 04:48:31;;;;;;;2.30;1.40;;;;;;;15.35;96.75;96299.06;2090111;28;20064;-58
2023/06/23 04:49:32;;;;;;;2.03;1.30;;;;;;;15.29;96.73;96307.25;2089199;28;20049;-58
2023/06/23 04:50:33;;;;;;;3.42;1.42;;;;;;;15.23;98.06;96305.88;2089798;28;20044;-58
2023/06/23 04:51:37;;;;;;;2.47;1.45;;;;;;;15.19;97.75;96310.44;2097861;28;20487;-58
2023/06/23 04:52:40;;;;;;;2.50;1.70;;;;;;;15.10;98.37;96297.06;2089129;28;20044;-58
2023/06/23 04:53:56;;;;;;;5.18;1.98;;;;;;;15.09;97.82;96311.94;2098778;28;20041;-58
2023/06/23 04:54:59;;;;;;;2.75;1.50;;;;;;;15.10;98.05;96310.16;2097750;28;20035;-58
2023/06/23 04:56:01;;;;;;;3.42;1.80;;;;;;;15.11;98.72;96317.09;2098834;28;20372;-58
2023/06/23 04:57:04;;;;;;;3.47;1.88;;;;;;;15.08;98.93;96312.88;2105504;28;20052;-58
2023/06/23 04:58:05;;;;;;;4.93;2.00;;;;;;;15.04;98.84;96319.22;2106516;28;20047;-58
2023/06/23 04:59:08;;;;;;;3.25;2.25;;;;;;;15.06;98.98;96327.81;2106266;28;20498;-58
2023/06/23 05:00:09;;;;;;;7.47;2.30;;;;;;;15.05;99.07;96320.03;2106043;28;20476;-58